Throop, New York
Current Conditions -  °F | °C
As of 5:22 PM on Saturday 25 Oct 2014 (Local Time) from KSYR Reporting Station
Thunderstorm Thunderstorm  
Wind Chill: 64°   Ceiling: 4500
Heat Index: 64°   Visibility: 10mi
Dew Point: 48°   Wind: 14mph
Humidity: 56%   Direction: 260°W
Pressure: 29.54"   Gusts: NA
Location:  42.9235°N, 76.5525°W
Report Text: KSYR 252122Z 26012KT 10SM TS BKN045CB BKN060 OVC080 18/09 A2954 RMK AO2 RAE14 TSB22 OCNL LTGIC NW TS NW MOV SE P0000 T01780089
Loading
Personal Weather Stations






























Interactive Weather Map New forecast layout! Learn more

10-Day Weather Forecast

Advertisements
Track Severe Weather on mobile